Time;durP1;ratioP1;P1;durP2;ratioP2;P2;SDS_P1;SDS_P2;PMS_P1;PMS_P2;Temp;Humidity;BMP_temperature;BMP_pressure;BME280_temperature;BME280_humidity;BME280_pressure;Samples;Min_cycle;Max_cycle;Signal;HPM_P1;HPM_P2
2024/01/14 00:00:53;;;;;;;4.43;3.00;;;;;;;;;;5041247;28;89134;-64
2024/01/14 00:03:21;;;;;;;4.23;2.97;;;;;;;;;;5041700;28;89793;-64
2024/01/14 00:05:50;;;;;;;4.57;2.83;;;;;;;;;;5041406;28;87590;-64
2024/01/14 00:08:18;;;;;;;3.50;2.70;;;;;;;;;;5040512;28;89788;-65
2024/01/14 00:10:48;;;;;;;5.83;3.10;;;;;;;;;;5040996;28;89207;-64
2024/01/14 00:13:17;;;;;;;4.20;2.73;;;;;;;;;;5040257;28;88934;-64
2024/01/14 00:15:45;;;;;;;4.67;2.60;;;;;;;;;;5040624;28;88518;-64
2024/01/14 00:18:15;;;;;;;5.83;3.43;;;;;;;;;;5041026;28;89603;-64
2024/01/14 00:20:43;;;;;;;4.67;3.10;;;;;;;;;;5039999;28;87931;-65
2024/01/14 00:23:12;;;;;;;5.77;2.93;;;;;;;;;;5040201;28;88762;-64
2024/01/14 00:25:40;;;;;;;7.57;3.27;;;;;;;;;;5040038;28;87453;-64
2024/01/14 00:28:08;;;;;;;6.53;2.83;;;;;;;;;;5040977;28;88541;-64
2024/01/14 00:30:36;;;;;;;3.97;3.17;;;;;;;;;;5040995;28;89138;-65
2024/01/14 00:33:05;;;;;;;5.77;3.77;;;;;;;;;;5041154;28;88800;-64
2024/01/14 00:35:35;;;;;;;6.07;3.57;;;;;;;;;;5040613;28;87662;-64
2024/01/14 00:38:05;;;;;;;5.13;4.20;;;;;;;;;;5039884;28;89613;-64
2024/01/14 00:40:35;;;;;;;5.73;3.83;;;;;;;;;;5039429;28;90217;-65
2024/01/14 00:43:03;;;;;;;4.93;3.80;;;;;;;;;;5040649;28;89848;-64
2024/01/14 00:45:33;;;;;;;5.50;4.60;;;;;;;;;;5040631;28;87624;-64
2024/01/14 00:48:05;;;;;;;7.60;4.67;;;;;;;;;;5040182;28;88609;-64
2024/01/14 00:50:33;;;;;;;8.47;4.17;;;;;;;;;;5039544;28;89079;-64
2024/01/14 00:53:10;;;;;;;8.47;5.57;;;;;;;;;;5040011;28;89041;-64
2024/01/14 00:55:39;;;;;;;7.27;4.13;;;;;;;;;;5039983;28;87750;-64
2024/01/14 00:58:07;;;;;;;7.30;4.37;;;;;;;;;;5040180;28;89452;-64
2024/01/14 01:00:37;;;;;;;6.43;3.33;;;;;;;;;;5038847;27;89192;-64
2024/01/14 01:03:09;;;;;;;7.73;4.63;;;;;;;;;;5040626;28;88848;-65
2024/01/14 01:05:39;;;;;;;8.27;3.43;;;;;;;;;;5040296;28;87674;-64
2024/01/14 01:08:09;;;;;;;6.63;3.67;;;;;;;;;;5040489;28;89879;-64
2024/01/14 01:10:39;;;;;;;6.43;3.77;;;;;;;;;;5040718;28;87979;-64
2024/01/14 01:13:07;;;;;;;7.80;4.43;;;;;;;;;;5036155;28;89132;-64
2024/01/14 01:15:35;;;;;;;7.13;4.53;;;;;;;;;;5019238;28;87530;-64
2024/01/14 01:18:06;;;;;;;5.37;3.67;;;;;;;;;;5018653;28;89798;-64
2024/01/14 01:20:34;;;;;;;6.20;4.07;;;;;;;;;;5018651;28;89863;-64
2024/01/14 01:23:06;;;;;;;8.57;4.63;;;;;;;;;;5019051;28;87782;-64
2024/01/14 01:25:36;;;;;;;4.20;3.27;;;;;;;;;;5018850;28;87436;-64
2024/01/14 01:28:05;;;;;;;5.83;3.80;;;;;;;;;;5019069;28;89902;-65
2024/01/14 01:30:33;;;;;;;7.10;4.17;;;;;;;;;;5018235;28;90118;-65
2024/01/14 01:33:01;;;;;;;5.37;3.67;;;;;;;;;;5016617;28;90148;-64
2024/01/14 01:35:30;;;;;;;4.87;3.73;;;;;;;;;;5019254;28;88656;-64
2024/01/14 01:37:58;;;;;;;6.67;3.90;;;;;;;;;;5010367;28;89383;-64
2024/01/14 01:40:27;;;;;;;4.57;3.00;;;;;;;;;;5018467;28;89362;-64
2024/01/14 01:42:57;;;;;;;7.23;4.73;;;;;;;;;;5018773;28;88736;-64
2024/01/14 01:45:26;;;;;;;6.77;3.97;;;;;;;;;;5018964;28;87563;-64
2024/01/14 01:47:54;;;;;;;6.37;3.97;;;;;;;;;;5019138;28;89579;-65
2024/01/14 01:50:23;;;;;;;6.80;4.57;;;;;;;;;;5018875;28;89374;-65
2024/01/14 01:52:53;;;;;;;8.80;4.43;;;;;;;;;;5019261;28;88886;-65
2024/01/14 01:55:21;;;;;;;5.60;4.23;;;;;;;;;;5015949;28;87944;-64
2024/01/14 01:57:49;;;;;;;6.57;4.40;;;;;;;;;;5018319;28;89622;-65
2024/01/14 02:00:25;;;;;;;5.50;4.00;;;;;;;;;;5018454;28;89106;-65
2024/01/14 02:02:56;;;;;;;10.37;4.47;;;;;;;;;;5018278;28;88941;-64
2024/01/14 02:05:24;;;;;;;6.37;3.70;;;;;;;;;;5018881;28;87472;-65
2024/01/14 02:07:52;;;;;;;7.00;3.63;;;;;;;;;;5018221;28;89837;-65
2024/01/14 02:10:22;;;;;;;6.13;3.87;;;;;;;;;;5016138;28;89183;-64
2024/01/14 02:12:52;;;;;;;4.90;3.50;;;;;;;;;;5020689;28;88911;-64
2024/01/14 02:15:21;;;;;;;8.40;3.73;;;;;;;;;;5019589;28;87585;-64
2024/01/14 02:17:50;;;;;;;4.93;3.97;;;;;;;;;;5021585;28;88653;-64
2024/01/14 02:20:18;;;;;;;9.43;4.40;;;;;;;;;;5021539;28;90027;-65
2024/01/14 02:22:47;;;;;;;3.57;2.53;;;;;;;;;;5021793;28;89777;-65
2024/01/14 02:25:16;;;;;;;7.57;4.13;;;;;;;;;;5022626;28;87748;-64
2024/01/14 02:27:45;;;;;;;5.70;3.50;;;;;;;;;;5022204;28;89658;-65
2024/01/14 02:30:13;;;;;;;4.30;3.57;;;;;;;;;;5021691;28;88996;-65
2024/01/14 02:32:41;;;;;;;5.20;3.70;;;;;;;;;;5019427;28;87581;-65
2024/01/14 02:35:10;;;;;;;4.17;2.83;;;;;;;;;;5021949;28;87533;-65
2024/01/14 02:37:43;;;;;;;3.83;3.43;;;;;;;;;;5021766;28;89948;-65
2024/01/14 02:40:12;;;;;;;4.70;3.60;;;;;;;;;;5021032;28;88370;-65
2024/01/14 02:42:41;;;;;;;5.50;4.00;;;;;;;;;;5018392;28;89678;-65
2024/01/14 02:45:10;;;;;;;5.40;3.73;;;;;;;;;;5021807;28;88141;-65
2024/01/14 02:47:39;;;;;;;5.93;3.57;;;;;;;;;;5022072;28;89919;-65
2024/01/14 02:50:07;;;;;;;4.77;3.13;;;;;;;;;;5021825;28;89235;-65
2024/01/14 02:52:36;;;;;;;3.80;2.33;;;;;;;;;;5021486;28;88862;-65
2024/01/14 02:55:04;;;;;;;4.03;3.17;;;;;;;;;;5016031;28;88095;-65
2024/01/14 02:57:33;;;;;;;3.97;2.90;;;;;;;;;;5021383;28;89628;-65
2024/01/14 03:00:04;;;;;;;6.37;3.30;;;;;;;;;;5019221;28;89123;-65
2024/01/14 03:02:32;;;;;;;6.67;2.67;;;;;;;;;;5021988;28;89075;-65
2024/01/14 03:05:00;;;;;;;4.17;2.80;;;;;;;;;;5019047;28;87661;-65
2024/01/14 03:07:29;;;;;;;4.70;2.83;;;;;;;;;;5020808;28;89729;-65
2024/01/14 03:09:57;;;;;;;4.47;3.10;;;;;;;;;;5021310;28;90139;-65
2024/01/14 03:12:25;;;;;;;4.60;2.97;;;;;;;;;;5021803;28;89754;-65
2024/01/14 03:14:54;;;;;;;5.70;2.83;;;;;;;;;;5021628;28;87602;-65
2024/01/14 03:17:23;;;;;;;3.20;2.57;;;;;;;;;;5020715;28;89757;-65
2024/01/14 03:19:52;;;;;;;2.30;2.10;;;;;;;;;;5021181;28;89199;-65
2024/01/14 03:22:20;;;;;;;6.53;3.03;;;;;;;;;;5018292;28;88863;-65
2024/01/14 03:24:49;;;;;;;4.10;2.83;;;;;;;;;;5020511;28;87479;-65
2024/01/14 03:27:17;;;;;;;4.80;2.93;;;;;;;;;;5021550;28;89985;-65
2024/01/14 03:29:45;;;;;;;5.43;3.13;;;;;;;;;;5021223;28;89001;-65
2024/01/14 03:32:14;;;;;;;5.10;3.53;;;;;;;;;;5021131;28;88795;-65
2024/01/14 03:34:43;;;;;;;6.37;3.37;;;;;;;;;;5020839;28;87990;-65
2024/01/14 03:37:12;;;;;;;3.33;2.67;;;;;;;;;;5021487;28;89699;-65
2024/01/14 03:39:40;;;;;;;5.60;3.10;;;;;;;;;;5018049;28;90994;-65
2024/01/14 03:42:09;;;;;;;6.10;2.73;;;;;;;;;;5020854;28;88841;-66
2024/01/14 03:44:37;;;;;;;2.73;2.17;;;;;;;;;;5020770;28;87579;-65
2024/01/14 03:47:05;;;;;;;4.23;2.63;;;;;;;;;;5020538;28;89615;-65
2024/01/14 03:49:34;;;;;;;3.27;2.57;;;;;;;;;;5020463;28;89120;-65
2024/01/14 03:52:04;;;;;;;4.73;2.37;;;;;;;;;;5019126;28;88744;-65
2024/01/14 03:54:32;;;;;;;4.40;2.90;;;;;;;;;;5021312;28;87632;-65
2024/01/14 03:57:01;;;;;;;4.97;3.23;;;;;;;;;;5017943;28;89903;-65
2024/01/14 03:59:29;;;;;;;5.50;3.80;;;;;;;;;;5019351;28;89934;-65
2024/01/14 04:01:57;;;;;;;5.40;3.17;;;;;;;;;;5020680;28;89673;-65
2024/01/14 04:04:26;;;;;;;5.40;3.80;;;;;;;;;;5021183;28;87648;-65
2024/01/14 04:06:54;;;;;;;5.37;3.53;;;;;;;;;;5021148;28;89929;-65
2024/01/14 04:09:26;;;;;;;9.43;3.97;;;;;;;;;;5021021;28;92110;-66
2024/01/14 04:11:57;;;;;;;5.43;3.50;;;;;;;;;;5011850;28;88930;-65
2024/01/14 04:14:26;;;;;;;5.80;3.97;;;;;;;;;;5019727;28;87634;-65
2024/01/14 04:16:54;;;;;;;6.17;4.10;;;;;;;;;;5020584;28;89627;-65
2024/01/14 04:19:23;;;;;;;7.17;3.70;;;;;;;;;;5020706;28;87876;-65
2024/01/14 04:21:53;;;;;;;4.30;3.63;;;;;;;;;;5017825;28;88938;-65
2024/01/14 04:24:22;;;;;;;9.17;4.53;;;;;;;;;;5019633;28;88069;-65
2024/01/14 04:26:52;;;;;;;7.30;4.70;;;;;;;;;;5024237;28;89252;-65
2024/01/14 04:29:20;;;;;;;8.00;5.10;;;;;;;;;;5028576;28;88969;-65
2024/01/14 04:31:49;;;;;;;9.00;6.10;;;;;;;;;;5030152;28;87713;-65
2024/01/14 04:34:17;;;;;;;11.13;5.30;;;;;;;;;;5023324;28;87407;-65
2024/01/14 04:36:46;;;;;;;10.10;5.27;;;;;;;;;;5019863;28;89775;-66
2024/01/14 04:39:14;;;;;;;6.67;5.07;;;;;;;;;;5019091;28;89243;-65
2024/01/14 04:41:43;;;;;;;7.57;5.50;;;;;;;;;;5020254;28;88884;-66
2024/01/14 04:44:13;;;;;;;11.97;6.40;;;;;;;;;;5020238;28;87968;-65
2024/01/14 04:46:43;;;;;;;10.43;5.77;;;;;;;;;;5020181;28;89746;-66
2024/01/14 04:49:14;;;;;;;8.80;6.27;;;;;;;;;;5019552;28;90013;-65
2024/01/14 04:51:42;;;;;;;12.37;6.30;;;;;;;;;;5019407;28;89802;-65
2024/01/14 04:54:11;;;;;;;14.13;6.90;;;;;;;;;;5020423;28;87409;-65
2024/01/14 04:56:41;;;;;;;11.47;7.67;;;;;;;;;;5019839;28;89653;-65
2024/01/14 04:59:09;;;;;;;10.97;7.33;;;;;;;;;;5020312;28;89089;-65
2024/01/14 05:01:39;;;;;;;12.07;7.70;;;;;;;;;;5020121;28;89026;-65
2024/01/14 05:04:07;;;;;;;13.10;7.43;;;;;;;;;;5019778;28;87531;-65
2024/01/14 05:06:35;;;;;;;11.27;8.00;;;;;;;;;;5020550;28;89488;-65
2024/01/14 05:09:05;;;;;;;14.43;8.70;;;;;;;;;;5020800;28;89122;-65
2024/01/14 05:11:35;;;;;;;16.43;8.87;;;;;;;;;;5020308;28;89202;-65
2024/01/14 05:14:04;;;;;;;16.27;9.20;;;;;;;;;;5020546;28;87950;-65
2024/01/14 05:16:32;;;;;;;15.30;8.47;;;;;;;;;;5020392;28;89698;-64
2024/01/14 05:19:03;;;;;;;18.23;9.53;;;;;;;;;;5019833;28;89632;-65
2024/01/14 05:21:34;;;;;;;13.40;8.17;;;;;;;;;;5019894;28;88847;-64
2024/01/14 05:24:03;;;;;;;19.07;9.47;;;;;;;;;;5019598;28;87628;-65
2024/01/14 05:26:32;;;;;;;15.17;10.40;;;;;;;;;;5019274;28;89866;-64
2024/01/14 05:29:00;;;;;;;16.53;10.00;;;;;;;;;;5019669;28;88736;-64
2024/01/14 05:31:31;;;;;;;16.40;9.07;;;;;;;;;;5019986;28;88494;-65
2024/01/14 05:33:59;;;;;;;14.37;8.97;;;;;;;;;;5019905;28;87625;-65
2024/01/14 05:36:29;;;;;;;16.50;9.57;;;;;;;;;;5019750;28;90646;-65
2024/01/14 05:38:57;;;;;;;16.53;8.00;;;;;;;;;;5018896;28;90038;-65
2024/01/14 05:41:26;;;;;;;15.67;9.37;;;;;;;;;;5019535;28;89790;-65
2024/01/14 05:43:56;;;;;;;15.00;8.97;;;;;;;;;;5020580;28;89104;-65
2024/01/14 05:46:27;;;;;;;13.87;8.03;;;;;;;;;;5019479;28;89699;-65
2024/01/14 05:48:56;;;;;;;15.27;9.77;;;;;;;;;;5022929;28;89540;-65
2024/01/14 05:51:24;;;;;;;18.47;9.13;;;;;;;;;;5022683;28;88810;-65
2024/01/14 05:53:54;;;;;;;16.77;7.70;;;;;;;;;;5022919;28;87468;-64
2024/01/14 05:56:26;;;;;;;21.53;9.97;;;;;;;;;;5023183;28;89790;-64
2024/01/14 05:58:54;;;;;;;19.00;8.30;;;;;;;;;;5022636;28;89204;-65
2024/01/14 06:01:23;;;;;;;14.43;8.77;;;;;;;;;;5023671;28;88869;-64
2024/01/14 06:03:51;;;;;;;15.87;9.60;;;;;;;;;;5023120;28;87827;-64
2024/01/14 06:06:19;;;;;;;11.70;8.23;;;;;;;;;;5022887;28;89817;-65
2024/01/14 06:08:48;;;;;;;13.53;9.30;;;;;;;;;;5022605;28;89239;-65
2024/01/14 06:11:18;;;;;;;13.60;7.47;;;;;;;;;;5022631;28;88867;-65
2024/01/14 06:13:46;;;;;;;13.80;9.00;;;;;;;;;;5022784;28;87524;-64
2024/01/14 06:16:15;;;;;;;14.17;7.93;;;;;;;;;;5022330;28;90009;-64
2024/01/14 06:18:43;;;;;;;13.67;8.43;;;;;;;;;;5021693;28;89136;-65
2024/01/14 06:21:12;;;;;;;12.80;7.50;;;;;;;;;;5013771;28;88854;-65
2024/01/14 06:23:41;;;;;;;13.97;6.93;;;;;;;;;;5015973;28;87644;-65
2024/01/14 06:26:09;;;;;;;20.53;10.07;;;;;;;;;;5032758;28;89575;-64
2024/01/14 06:28:39;;;;;;;12.30;8.43;;;;;;;;;;5030747;28;90058;-65
2024/01/14 06:31:08;;;;;;;14.27;7.77;;;;;;;;;;5030721;28;89676;-64
2024/01/14 06:33:37;;;;;;;15.70;9.13;;;;;;;;;;5032593;28;87512;-65
2024/01/14 06:36:06;;;;;;;15.97;8.43;;;;;;;;;;5033240;28;88419;-65
2024/01/14 06:38:35;;;;;;;16.10;8.07;;;;;;;;;;5032768;28;88925;-65
2024/01/14 06:41:04;;;;;;;13.90;7.97;;;;;;;;;;5032114;28;88890;-65
2024/01/14 06:43:39;;;;;;;14.70;9.70;;;;;;;;;;5031991;28;87563;-65
2024/01/14 06:46:08;;;;;;;14.90;8.50;;;;;;;;;;5033391;28;89943;-65
2024/01/14 06:48:36;;;;;;;14.20;7.70;;;;;;;;;;5031632;28;88971;-66
2024/01/14 06:51:05;;;;;;;14.40;7.90;;;;;;;;;;5030690;28;89001;-65
2024/01/14 06:53:33;;;;;;;15.13;8.80;;;;;;;;;;5027443;28;88146;-65
2024/01/14 06:56:02;;;;;;;13.23;8.80;;;;;;;;;;5031238;28;88298;-65
2024/01/14 06:58:31;;;;;;;16.50;9.57;;;;;;;;;;5031007;28;87998;-65
2024/01/14 07:01:00;;;;;;;13.17;7.70;;;;;;;;;;5030948;28;89250;-66
2024/01/14 07:03:29;;;;;;;15.27;8.77;;;;;;;;;;5030700;28;87847;-65
2024/01/14 07:05:58;;;;;;;15.93;8.63;;;;;;;;;;5032029;28;89592;-65
2024/01/14 07:08:27;;;;;;;13.97;9.33;;;;;;;;;;5032559;28;91496;-65
2024/01/14 07:10:55;;;;;;;17.37;9.17;;;;;;;;;;5028452;28;88897;-65
2024/01/14 07:13:23;;;;;;;16.03;8.87;;;;;;;;;;5030740;28;87388;-65
2024/01/14 07:15:52;;;;;;;14.50;8.33;;;;;;;;;;5032428;28;89596;-65
2024/01/14 07:18:22;;;;;;;16.20;9.63;;;;;;;;;;5031186;28;90030;-65
2024/01/14 07:20:51;;;;;;;16.27;10.70;;;;;;;;;;5033896;28;89766;-64
2024/01/14 07:23:19;;;;;;;17.23;9.83;;;;;;;;;;5035555;28;87512;-65
2024/01/14 07:26:13;;;;;;;16.47;8.67;;;;;;;;;;5022636;28;90300;-65
2024/01/14 07:28:41;;;;;;;21.10;10.57;;;;;;;;;;5029321;28;89096;-65
2024/01/14 07:31:09;;;;;;;15.03;7.77;;;;;;;;;;5029042;28;88794;-65
2024/01/14 07:33:40;;;;;;;16.63;10.10;;;;;;;;;;5031417;28;87547;-65
2024/01/14 07:36:09;;;;;;;18.13;10.50;;;;;;;;;;5031313;28;89812;-65
2024/01/14 07:38:37;;;;;;;17.57;9.90;;;;;;;;;;5030359;28;89083;-65
2024/01/14 07:41:06;;;;;;;20.93;11.23;;;;;;;;;;5028888;28;88864;-65
2024/01/14 07:43:35;;;;;;;18.73;9.93;;;;;;;;;;5026558;28;88831;-65
2024/01/14 07:46:03;;;;;;;19.20;10.83;;;;;;;;;;5029938;28;90006;-65
2024/01/14 07:48:31;;;;;;;19.10;9.97;;;;;;;;;;5030958;28;89054;-65
2024/01/14 07:51:01;;;;;;;16.93;9.43;;;;;;;;;;5029307;28;88911;-64
2024/01/14 07:53:30;;;;;;;18.27;10.33;;;;;;;;;;5030349;28;87644;-64
2024/01/14 07:55:58;;;;;;;18.10;9.90;;;;;;;;;;5030773;28;88784;-65
2024/01/14 07:58:26;;;;;;;21.13;11.03;;;;;;;;;;5030848;28;88871;-65
2024/01/14 08:00:55;;;;;;;19.77;11.00;;;;;;;;;;5026569;28;87753;-64
2024/01/14 08:03:30;;;;;;;17.90;9.77;;;;;;;;;;5028375;28;87687;-65
2024/01/14 08:06:01;;;;;;;15.47;8.93;;;;;;;;;;5030171;28;88604;-64
2024/01/14 08:08:29;;;;;;;17.30;10.33;;;;;;;;;;5031550;28;90312;-65
2024/01/14 08:10:58;;;;;;;21.87;10.30;;;;;;;;;;5029388;28;88501;-64
2024/01/14 08:13:26;;;;;;;19.93;10.83;;;;;;;;;;5029621;28;87596;-65
2024/01/14 08:15:54;;;;;;;16.20;9.30;;;;;;;;;;5026252;28;89868;-65
2024/01/14 08:18:30;;;;;;;16.13;9.23;;;;;;;;;;5029421;28;89082;-64
2024/01/14 08:21:03;;;;;;;20.13;8.13;;;;;;;;;;5029766;27;88693;-65
2024/01/14 08:23:32;;;;;;;15.83;9.13;;;;;;;;;;5031940;28;87706;-64
2024/01/14 08:26:02;;;;;;;14.80;8.67;;;;;;;;;;5030459;28;89685;-65
2024/01/14 08:28:30;;;;;;;15.80;9.40;;;;;;;;;;5029316;28;89233;-65
2024/01/14 08:30:59;;;;;;;18.33;9.43;;;;;;;;;;5028009;28;87633;-65
2024/01/14 08:33:27;;;;;;;16.50;9.40;;;;;;;;;;5028361;28;88034;-65
2024/01/14 08:35:56;;;;;;;15.80;9.00;;;;;;;;;;5023660;28;90252;-65
2024/01/14 08:38:26;;;;;;;16.67;9.50;;;;;;;;;;5026277;28;87633;-65
2024/01/14 08:40:54;;;;;;;14.53;9.33;;;;;;;;;;5024059;28;88373;-65
2024/01/14 08:43:23;;;;;;;14.50;9.60;;;;;;;;;;5027720;28;87560;-64
2024/01/14 08:45:51;;;;;;;17.60;8.77;;;;;;;;;;5025756;28;89650;-65
2024/01/14 08:48:19;;;;;;;14.43;7.87;;;;;;;;;;5027810;28;88311;-65
2024/01/14 08:50:50;;;;;;;13.40;8.03;;;;;;;;;;5028462;28;87511;-65
2024/01/14 08:53:18;;;;;;;17.30;9.70;;;;;;;;;;5012647;28;88278;-65
2024/01/14 08:55:48;;;;;;;18.40;8.37;;;;;;;;;;5025804;28;88534;-64
2024/01/14 08:58:16;;;;;;;12.67;9.00;;;;;;;;;;5023299;28;90054;-65
2024/01/14 09:00:45;;;;;;;14.10;7.40;;;;;;;;;;5027960;28;89802;-65
2024/01/14 09:03:13;;;;;;;15.00;9.03;;;;;;;;;;5025811;28;87768;-65
2024/01/14 09:05:42;;;;;;;12.33;7.70;;;;;;;;;;5026570;28;88601;-64
2024/01/14 09:08:10;;;;;;;14.40;8.37;;;;;;;;;;5027408;28;89123;-65
2024/01/14 09:10:39;;;;;;;15.83;7.87;;;;;;;;;;5026737;28;88956;-65
2024/01/14 09:13:08;;;;;;;14.93;8.43;;;;;;;;;;5025688;28;87805;-64
2024/01/14 09:15:37;;;;;;;14.10;8.67;;;;;;;;;;5024008;28;89427;-65
2024/01/14 09:18:06;;;;;;;18.63;8.27;;;;;;;;;;5025537;28;90916;-64
2024/01/14 09:20:36;;;;;;;13.10;7.83;;;;;;;;;;5025333;28;88524;-65
2024/01/14 09:23:04;;;;;;;14.73;7.83;;;;;;;;;;5024848;28;88930;-65
2024/01/14 09:25:33;;;;;;;13.03;7.27;;;;;;;;;;5027724;28;89595;-65
2024/01/14 09:28:02;;;;;;;12.93;8.40;;;;;;;;;;5026628;28;89215;-64
2024/01/14 09:30:32;;;;;;;11.80;6.40;;;;;;;;;;5025180;28;88851;-65
2024/01/14 09:33:02;;;;;;;12.63;7.93;;;;;;;;;;5025707;28;88595;-65
2024/01/14 09:35:30;;;;;;;9.80;6.60;;;;;;;;;;5027077;28;89703;-65
2024/01/14 09:38:00;;;;;;;11.83;7.37;;;;;;;;;;5021781;28;89181;-64
2024/01/14 09:40:29;;;;;;;12.00;6.67;;;;;;;;;;5026844;28;88350;-65
2024/01/14 09:42:58;;;;;;;10.67;6.53;;;;;;;;;;5023340;28;87598;-65
2024/01/14 09:45:26;;;;;;;11.10;6.40;;;;;;;;;;5025339;28;89795;-65
2024/01/14 09:48:02;;;;;;;10.77;6.77;;;;;;;;;;5024878;28;90074;-65
2024/01/14 09:50:31;;;;;;;10.37;6.27;;;;;;;;;;5024809;28;89855;-65
2024/01/14 09:52:59;;;;;;;10.53;6.77;;;;;;;;;;5027101;28;87555;-65
2024/01/14 09:55:28;;;;;;;10.20;6.90;;;;;;;;;;5026364;28;89865;-65
2024/01/14 09:58:00;;;;;;;12.10;6.43;;;;;;;;;;5026139;28;87850;-65
2024/01/14 10:00:30;;;;;;;9.30;5.03;;;;;;;;;;5027117;28;88887;-65
2024/01/14 10:02:59;;;;;;;7.20;4.57;;;;;;;;;;5023691;28;87622;-65
2024/01/14 10:05:33;;;;;;;7.80;5.50;;;;;;;;;;5024657;28;89588;-65
2024/01/14 10:08:01;;;;;;;13.23;6.17;;;;;;;;;;5026199;28;89038;-64
2024/01/14 10:10:31;;;;;;;9.80;5.60;;;;;;;;;;5025912;28;88808;-65
2024/01/14 10:12:59;;;;;;;7.57;4.80;;;;;;;;;;5013088;28;89697;-65
2024/01/14 10:15:27;;;;;;;9.10;4.73;;;;;;;;;;5026115;28;89669;-64
2024/01/14 10:17:57;;;;;;;9.07;5.27;;;;;;;;;;5026473;28;87926;-64
2024/01/14 10:20:26;;;;;;;9.37;5.03;;;;;;;;;;5026270;28;88790;-65
2024/01/14 10:22:57;;;;;;;9.10;5.07;;;;;;;;;;5021841;28;87525;-64
2024/01/14 10:25:28;;;;;;;9.73;4.90;;;;;;;;;;5024948;28;90021;-64
2024/01/14 10:27:57;;;;;;;8.20;4.57;;;;;;;;;;5025898;27;89076;-64
2024/01/14 10:30:25;;;;;;;8.43;4.03;;;;;;;;;;5026090;28;88759;-64
2024/01/14 10:32:54;;;;;;;6.93;5.20;;;;;;;;;;5025130;28;87665;-64
2024/01/14 10:35:43;;;;;;;7.37;4.37;;;;;;;;;;5027642;28;90338;-64
2024/01/14 10:38:13;;;;;;;7.73;4.77;;;;;;;;;;5027307;28;88992;-64
2024/01/14 10:40:42;;;;;;;8.23;3.97;;;;;;;;;;5028063;28;89907;-65
2024/01/14 10:43:12;;;;;;;6.03;4.27;;;;;;;;;;5030139;28;87490;-65
2024/01/14 10:45:41;;;;;;;8.77;3.93;;;;;;;;;;5028887;28;89867;-65
2024/01/14 10:48:12;;;;;;;4.03;3.30;;;;;;;;;;5027779;28;88851;-65
2024/01/14 10:50:41;;;;;;;7.17;3.87;;;;;;;;;;5028410;28;88912;-64
2024/01/14 10:53:20;;;;;;;6.83;3.73;;;;;;;;;;5026176;28;87530;-64
2024/01/14 10:55:49;;;;;;;6.03;3.93;;;;;;;;;;5028004;28;88536;-64
2024/01/14 10:58:19;;;;;;;7.63;3.73;;;;;;;;;;5025760;28;89120;-65
2024/01/14 11:00:48;;;;;;;4.43;3.20;;;;;;;;;;5028183;28;88711;-65
2024/01/14 11:03:16;;;;;;;7.33;3.80;;;;;;;;;;5025040;28;88812;-65
2024/01/14 11:05:45;;;;;;;6.20;3.97;;;;;;;;;;5028325;28;87567;-66
2024/01/14 11:08:14;;;;;;;6.80;4.20;;;;;;;;;;5029169;28;89295;-66
2024/01/14 11:10:45;;;;;;;7.03;4.03;;;;;;;;;;5028269;28;88792;-66
2024/01/14 11:13:18;;;;;;;6.90;3.67;;;;;;;;;;5028584;28;88113;-65
2024/01/14 11:15:47;;;;;;;4.93;3.53;;;;;;;;;;5028068;28;89633;-65
2024/01/14 11:18:17;;;;;;;3.60;2.77;;;;;;;;;;5024391;28;89144;-65
2024/01/14 11:20:45;;;;;;;6.40;2.67;;;;;;;;;;5028016;28;89121;-65
2024/01/14 11:23:34;;;;;;;4.37;3.00;;;;;;;;;;5029215;28;88004;-66
2024/01/14 11:26:05;;;;;;;7.10;3.90;;;;;;;;;;5028350;28;88522;-65
2024/01/14 11:28:33;;;;;;;4.77;3.67;;;;;;;;;;5026972;28;90062;-66
2024/01/14 11:31:03;;;;;;;9.13;3.07;;;;;;;;;;5027959;28;89735;-65
2024/01/14 11:33:32;;;;;;;4.43;3.37;;;;;;;;;;5028885;28;87651;-66
2024/01/14 11:36:01;;;;;;;6.10;3.53;;;;;;;;;;5025409;28;88834;-66
2024/01/14 11:38:33;;;;;;;4.37;3.13;;;;;;;;;;5026381;28;90268;-66
2024/01/14 11:41:13;;;;;;;3.17;2.73;;;;;;;;;;5027976;28;88830;-65
2024/01/14 11:43:41;;;;;;;3.63;2.93;;;;;;;;;;5025638;28;88313;-68
2024/01/14 11:46:10;;;;;;;9.73;3.03;;;;;;;;;;5017648;28;89648;-66
2024/01/14 11:48:38;;;;;;;6.13;3.40;;;;;;;;;;5024881;28;89143;-67
2024/01/14 11:51:07;;;;;;;5.60;3.30;;;;;;;;;;5027464;28;89060;-66
2024/01/14 11:53:35;;;;;;;6.63;4.80;;;;;;;;;;5021492;28;87988;-66
2024/01/14 11:56:04;;;;;;;4.97;3.27;;;;;;;;;;5024414;28;89843;-65
2024/01/14 11:58:33;;;;;;;3.77;2.33;;;;;;;;;;5028579;28;91317;-66
2024/01/14 12:01:02;;;;;;;4.30;3.17;;;;;;;;;;5027073;28;88775;-65
2024/01/14 12:03:32;;;;;;;6.27;3.93;;;;;;;;;;5027617;28;87472;-67
2024/01/14 12:06:03;;;;;;;3.37;2.67;;;;;;;;;;5028505;28;89312;-66
2024/01/14 12:08:31;;;;;;;6.00;3.17;;;;;;;;;;5029238;28;89982;-67
2024/01/14 12:11:03;;;;;;;2.83;2.40;;;;;;;;;;5028160;28;87753;-67
2024/01/14 12:13:33;;;;;;;10.13;2.60;;;;;;;;;;5026255;28;87580;-68
2024/01/14 12:16:03;;;;;;;6.73;3.70;;;;;;;;;;5028074;28;89620;-67
2024/01/14 12:18:41;;;;;;;4.87;3.53;;;;;;;;;;5027847;28;92957;-66
2024/01/14 12:21:14;;;;;;;5.63;4.00;;;;;;;;;;5028793;28;89628;-67
2024/01/14 12:23:57;;;;;;;4.87;3.77;;;;;;;;;;5024549;28;87606;-67
2024/01/14 12:26:26;;;;;;;5.73;2.97;;;;;;;;;;5026328;28;89811;-66
2024/01/14 12:28:55;;;;;;;4.43;3.47;;;;;;;;;;5028945;28;88764;-66
2024/01/14 12:31:26;;;;;;;4.53;2.40;;;;;;;;;;5023540;28;88824;-66
2024/01/14 12:34:00;;;;;;;5.60;3.70;;;;;;;;;;5018214;28;87567;-66
2024/01/14 12:36:29;;;;;;;4.70;3.40;;;;;;;;;;5017694;28;88512;-67
2024/01/14 12:39:10;;;;;;;3.93;3.23;;;;;;;;;;5016833;28;89394;-66
2024/01/14 12:41:39;;;;;;;5.03;3.60;;;;;;;;;;5017330;28;92037;-65
2024/01/14 12:44:24;;;;;;;5.00;2.90;;;;;;;;;;5017040;28;88440;-65
2024/01/14 12:46:55;;;;;;;7.40;3.73;;;;;;;;;;5017687;28;89648;-65
2024/01/14 12:49:26;;;;;;;6.73;3.43;;;;;;;;;;5017156;28;89137;-64
2024/01/14 12:52:01;;;;;;;7.67;3.33;;;;;;;;;;5017734;28;88958;-65
2024/01/14 12:54:30;;;;;;;11.13;3.17;;;;;;;;;;5018025;28;87435;-65
2024/01/14 12:56:59;;;;;;;3.73;3.30;;;;;;;;;;5016825;28;89672;-64
2024/01/14 12:59:31;;;;;;;5.20;3.30;;;;;;;;;;5016455;28;88502;-65
2024/01/14 13:02:01;;;;;;;5.73;3.17;;;;;;;;;;5017576;28;91209;-65
2024/01/14 13:04:29;;;;;;;5.20;3.47;;;;;;;;;;5017533;28;87649;-64
2024/01/14 13:06:58;;;;;;;6.50;3.63;;;;;;;;;;5017377;28;89857;-64
2024/01/14 13:09:27;;;;;;;4.33;3.33;;;;;;;;;;5015707;28;90128;-64
2024/01/14 13:11:55;;;;;;;7.83;4.43;;;;;;;;;;5016346;28;88648;-64
2024/01/14 13:14:28;;;;;;;8.30;3.93;;;;;;;;;;5016777;28;87425;-64
2024/01/14 13:17:00;;;;;;;11.27;4.87;;;;;;;;;;5016703;28;89578;-70
2024/01/14 13:19:29;;;;;;;8.27;4.53;;;;;;;;;;5017155;28;89096;-69
2024/01/14 13:21:58;;;;;;;6.37;4.93;;;;;;;;;;5017023;28;88853;-68
2024/01/14 13:24:27;;;;;;;8.33;5.03;;;;;;;;;;5016353;28;87669;-69
2024/01/14 13:26:59;;;;;;;5.77;3.50;;;;;;;;;;5017113;28;89406;-68
2024/01/14 13:29:30;;;;;;;6.73;5.20;;;;;;;;;;5015972;28;89180;-69
2024/01/14 13:32:00;;;;;;;6.87;4.43;;;;;;;;;;5016044;28;90546;-70
2024/01/14 13:34:28;;;;;;;6.43;4.50;;;;;;;;;;5016325;28;88044;-69
2024/01/14 13:36:57;;;;;;;7.27;4.53;;;;;;;;;;5015948;28;89655;-69
2024/01/14 13:39:25;;;;;;;7.00;4.43;;;;;;;;;;4996261;28;88950;-70
2024/01/14 13:41:54;;;;;;;6.93;4.17;;;;;;;;;;4996846;28;89641;-70
2024/01/14 13:44:23;;;;;;;6.73;4.50;;;;;;;;;;4997225;28;87564;-68
2024/01/14 13:46:52;;;;;;;6.53;4.27;;;;;;;;;;4997206;28;89821;-70
2024/01/14 13:49:24;;;;;;;6.90;4.33;;;;;;;;;;4996086;28;89482;-70
2024/01/14 13:51:53;;;;;;;7.50;4.33;;;;;;;;;;4996893;28;88105;-70
2024/01/14 13:54:21;;;;;;;5.00;4.27;;;;;;;;;;4995829;28;87603;-71
2024/01/14 13:56:54;;;;;;;8.97;3.90;;;;;;;;;;4998143;28;90110;-70
2024/01/14 13:59:23;;;;;;;5.77;3.97;;;;;;;;;;5025560;28;90132;-70
2024/01/14 14:01:52;;;;;;;8.23;4.27;;;;;;;;;;5034533;28;89770;-69
2024/01/14 14:04:21;;;;;;;6.47;4.17;;;;;;;;;;5015594;28;87605;-70
2024/01/14 14:06:55;;;;;;;6.30;3.80;;;;;;;;;;5016509;28;89720;-70
2024/01/14 14:09:24;;;;;;;6.97;4.03;;;;;;;;;;5019326;28;89074;-69
2024/01/14 14:11:53;;;;;;;5.80;3.60;;;;;;;;;;5019951;28;88808;-70
2024/01/14 14:14:21;;;;;;;5.47;4.07;;;;;;;;;;5020241;28;87761;-70
2024/01/14 14:16:50;;;;;;;6.63;4.23;;;;;;;;;;5020454;28;89921;-70
2024/01/14 14:19:19;;;;;;;6.73;3.87;;;;;;;;;;5019679;28;89029;-69
2024/01/14 14:21:52;;;;;;;5.67;3.93;;;;;;;;;;5020831;28;90762;-69
2024/01/14 14:24:28;;;;;;;5.37;3.73;;;;;;;;;;5020123;28;88224;-69
2024/01/14 14:26:56;;;;;;;7.23;4.77;;;;;;;;;;5020132;28;89709;-70
2024/01/14 14:29:25;;;;;;;6.37;4.37;;;;;;;;;;5020088;28;89119;-72
2024/01/14 14:31:55;;;;;;;7.80;5.00;;;;;;;;;;5019889;28;88115;-72
2024/01/14 14:34:25;;;;;;;6.37;4.53;;;;;;;;;;5020481;28;87504;-71
2024/01/14 14:36:56;;;;;;;7.67;4.27;;;;;;;;;;5018756;28;89616;-73
2024/01/14 14:39:26;;;;;;;9.43;4.87;;;;;;;;;;5019045;28;88228;-71
2024/01/14 14:41:55;;;;;;;6.37;4.03;;;;;;;;;;5017755;28;88857;-72
2024/01/14 14:44:24;;;;;;;8.20;5.50;;;;;;;;;;5018878;28;87578;-71
2024/01/14 14:46:53;;;;;;;8.53;5.90;;;;;;;;;;5017913;28;89879;-72
2024/01/14 14:49:21;;;;;;;10.20;6.80;;;;;;;;;;5018079;28;90088;-73
2024/01/14 14:51:50;;;;;;;11.03;6.17;;;;;;;;;;5015641;28;89780;-73